TimeCDT,TemperatureF,Dew PointF,Humidity,Sea Level PressureIn,VisibilityMPH,Wind Direction,Wind SpeedMPH,Gust SpeedMPH,PrecipitationIn,Events,Conditions,WindDirDegrees,DateUTC
12:53 AM,48.0,46.0,93,30.12,10.0,Calm,Calm,-,N/A,,Clear,0,2013-10-08 05:53:00
1:53 AM,46.9,45.0,93,30.12,10.0,ESE,3.5,-,N/A,,Clear,110,2013-10-08 06:53:00
2:53 AM,46.0,44.1,93,30.12,10.0,ESE,4.6,-,N/A,,Clear,120,2013-10-08 07:53:00
3:53 AM,46.0,44.1,93,30.13,10.0,ESE,3.5,-,N/A,,Clear,120,2013-10-08 08:53:00
4:53 AM,45.0,43.0,93,30.14,10.0,SE,5.8,-,N/A,,Clear,130,2013-10-08 09:53:00
5:53 AM,44.1,42.1,93,30.14,10.0,SE,3.5,-,N/A,,Clear,130,2013-10-08 10:53:00
6:50 AM,42.8,42.8,100,30.17,2.0,SE,5.8,-,0.01,,Partly Cloudy,130,2013-10-08 11:50:00
6:53 AM,43.0,42.1,97,30.14,1.8,SE,5.8,-,0.01,,Scattered Clouds,130,2013-10-08 11:53:00
7:03 AM,42.8,41.0,93,30.17,0.8,SE,6.9,-,N/A,,Mist,130,2013-10-08 12:03:00
7:15 AM,42.8,42.8,100,30.17,0.5,SE,6.9,-,N/A,Fog,Fog,130,2013-10-08 12:15:00
7:26 AM,42.8,42.8,100,30.17,1.2,SE,6.9,-,N/A,,Partly Cloudy,130,2013-10-08 12:26:00
7:31 AM,42.8,42.8,100,30.17,3.0,SE,5.8,-,N/A,,Partly Cloudy,130,2013-10-08 12:31:00
7:53 AM,44.1,43.0,96,30.16,4.0,SE,4.6,-,N/A,,Clear,130,2013-10-08 12:53:00
8:53 AM,50.0,46.9,89,30.16,4.0,SE,5.8,-,N/A,,Clear,140,2013-10-08 13:53:00
9:08 AM,51.8,48.2,88,30.19,2.0,SE,5.8,-,N/A,,Clear,140,2013-10-08 14:08:00
9:18 AM,51.8,48.2,88,30.19,10.0,SE,4.6,-,N/A,,Clear,130,2013-10-08 14:18:00
9:53 AM,55.0,50.0,83,30.17,10.0,ESE,4.6,-,N/A,,Clear,120,2013-10-08 14:53:00
10:53 AM,64.0,52.0,65,30.15,10.0,Variable,3.5,-,N/A,,Clear,0,2013-10-08 15:53:00
11:53 AM,70.0,48.0,46,30.14,10.0,SE,8.1,-,N/A,,Clear,130,2013-10-08 16:53:00
12:53 PM,72.0,43.0,35,30.12,10.0,South,6.9,-,N/A,,Clear,170,2013-10-08 17:53:00
1:14 PM,71.6,44.6,38,30.14,2.0,SE,10.4,-,N/A,,Haze,130,2013-10-08 18:14:00
1:24 PM,73.4,44.6,36,30.13,10.0,SE,10.4,-,N/A,,Clear,140,2013-10-08 18:24:00
1:53 PM,73.9,44.1,34,30.09,10.0,SSE,11.5,-,N/A,,Clear,150,2013-10-08 18:53:00
2:53 PM,73.9,45.0,35,30.07,10.0,South,10.4,-,N/A,,Clear,170,2013-10-08 19:53:00
3:53 PM,75.0,46.0,36,30.06,10.0,SE,8.1,-,N/A,,Clear,130,2013-10-08 20:53:00
4:53 PM,73.9,48.0,40,30.06,10.0,SE,4.6,-,N/A,,Clear,140,2013-10-08 21:53:00
5:53 PM,73.0,48.0,41,30.06,10.0,SSE,6.9,-,N/A,,Clear,150,2013-10-08 22:53:00
6:53 PM,66.9,48.9,52,30.06,10.0,ESE,3.5,-,N/A,,Clear,110,2013-10-08 23:53:00
7:53 PM,62.1,50.0,65,30.07,10.0,ESE,4.6,-,N/A,,Clear,110,2013-10-09 00:53:00
8:53 PM,57.9,50.0,75,30.08,10.0,SE,3.5,-,N/A,,Clear,130,2013-10-09 01:53:00
9:53 PM,57.0,48.9,74,30.08,10.0,East,3.5,-,N/A,,Clear,90,2013-10-09 02:53:00
10:53 PM,57.0,48.9,74,30.08,10.0,SE,5.8,-,N/A,,Clear,130,2013-10-09 03:53:00
11:53 PM,54.0,48.0,80,30.08,10.0,ESE,6.9,-,N/A,,Clear,120,2013-10-09 04:53:00